• Join FlightAware (Why Join?)
  • Login
  • US Flag 
04:19PM EDT


 

Airport Tracker/Info


-or-


 

Live Flight TrackerFlight Track Log ✈ ASQ4252 ✈ 26-Jul-2013 ✈ KORD - KXNA

Flight Track Log - Related Links

Times and Time Zones

All times are in EDT time to prevent confusion due to time zone crossing. See the ASQ4252 flight status page for this flight to view local times or setup timezone preferences in your user account.

Time Position Orientation Groundspeed Altitude Reporting Facility
EDT Latitude Longitude Course Direction KTS MPH feet Rate Location/Type
09:19AM 41.9500 -87.9500 194° South 175 201 2,500  Level Chicago TRACON
09:20AM 41.9000 -87.9833 206° Southwest 227 261 4,900 1,200 Climbing Chicago TRACON
09:21AM 41.8500 -88.0000 194° South 250 288 5,000 720 Climbing Chicago TRACON
09:22AM 41.6951 -88.2654 203° Southwest  Level Estimated
09:22AM 41.7833 -88.0167 191° South 260 299 6,300  Level Chicago TRACON
09:23AM 41.6233 -88.3545 197° South  Level Estimated
09:23AM 41.6886 -88.0547 197° South 274 315 10,400  Level Chicago Center
09:24AM 41.5514 -88.4435 194° South  Level Estimated
09:24AM 41.5967 -88.0961 199° South 292 336 12,900  Level Chicago Center
09:25AM 41.5050 -88.1361 198° South 349 402 14,400 1,680 Climbing Chicago Center
09:26AM 41.4131 -88.1781 199° South 365 420 16,400 1,800 Climbing Chicago Center
09:27AM 41.2975 -88.2283 198° South 372 428 18,200 1,980 Climbing Chicago Center
09:28AM 41.2000 -88.2731 199° South 375 432 20,500 2,160 Climbing Chicago Center
09:29AM 41.1050 -88.3164 199° South 367 422 22,700 1,980 Climbing Chicago Center
09:30AM 41.0119 -88.3589 199° South 358 412 24,600 1,980 Climbing Chicago Center
09:31AM 40.9178 -88.3989 198° South 358 412 26,900 1,140 Climbing Chicago Center
09:32AM 40.8006 -88.4522 199° South 374 430 27,000 660 Climbing Chicago Center
09:33AM 40.6928 -88.4997 198° South 403 464 28,300 1,380 Climbing Chicago Center
09:34AM 40.5903 -88.5464 199° South 395 455 29,900 780 Climbing Chicago Center
09:35AM 40.4842 -88.5939 199° South 401 461 30,000  Climbing Chicago Center
09:36AM 40.3600 -88.6467 198° South 434 499 30,000  Level Chicago Center
09:38AM 40.2583 -88.7411 215° Southwest 451 519 30,000  Level Chicago Center
09:39AM 40.1708 -88.8553 225° Southwest 446 513 30,000  Level Chicago Center
09:40AM 40.0828 -88.9650 224° Southwest 438 504 30,000  Level Chicago Center
09:41AM 39.9792 -89.0972 224° Southwest 433 498 30,000 120 Level Chicago Center
09:41AM 39.9253 -89.1633 223° Southwest 434 499 30,300 1,200 Climbing Kansas City Center
09:42AM 39.8267 -89.2889 224° Southwest 418 481 32,200 1,740 Climbing Kansas City Center
09:43AM 39.7517 -89.3831 224° Southwest 387 445 33,900 1,500 Climbing Kansas City Center
09:45AM 39.6886 -89.4647 225° Southwest 374 430 35,300 1,020 Climbing Kansas City Center
09:46AM 39.6103 -89.5822 229° Southwest 362 417 36,000 300 Climbing Kansas City Center
09:47AM 39.5381 -89.6861 228° Southwest 378 435 36,000  Level Kansas City Center
09:48AM 39.4622 -89.7958 228° Southwest 402 463 36,000  Level Kansas City Center
09:49AM 39.3867 -89.9058 228° Southwest 410 472 36,000  Level Kansas City Center
09:50AM 39.3117 -90.0131 228° Southwest 406 467 36,000  Level Kansas City Center
09:51AM 39.2381 -90.1206 229° Southwest 402 463 36,000  Level Kansas City Center
09:52AM 39.1644 -90.2261 228° Southwest 400 460 36,000  Level Kansas City Center
09:53AM 39.0767 -90.3522 228° Southwest 398 458 36,000  Level Kansas City Center
09:54AM 39.0039 -90.4569 228° Southwest 397 457 36,000  Level Kansas City Center
09:55AM 38.9372 -90.5522 228° Southwest 396 456 36,000  Level Kansas City Center
09:56AM 38.8481 -90.6767 227° Southwest 393 452 36,000  Level Kansas City Center
09:57AM 38.7839 -90.7653 227° Southwest 395 455 36,000  Level Kansas City Center
09:58AM 38.7106 -90.8678 228° Southwest 394 453 36,000  Level Kansas City Center
09:59AM 38.6219 -90.9922 228° Southwest 394 453 36,000  Level Kansas City Center
10:00AM 38.5478 -91.0958 228° Southwest 395 455 36,000 -420 Level Kansas City Center
10:01AM 38.4722 -91.2011 228° Southwest 400 460 35,200 -900 Descending Kansas City Center
10:02AM 38.3906 -91.3128 227° Southwest 416 479 34,200 -600 Descending Kansas City Center
10:03AM 38.2947 -91.4428 227° Southwest 418 481 34,000 -120 Descending Kansas City Center
10:04AM 38.2136 -91.5564 228° Southwest 424 488 34,000  Level Kansas City Center
10:05AM 38.1317 -91.6689 227° Southwest 429 494 34,000  Level Kansas City Center
10:06AM 38.0483 -91.7800 226° Southwest 430 495 34,000  Level Kansas City Center
10:07AM 37.9644 -91.8931 227° Southwest 435 501 34,000  Level Kansas City Center
10:08AM 37.8822 -92.0044 227° Southwest 432 497 34,000  Level Kansas City Center
10:09AM 37.8036 -92.1119 227° Southwest 438 504 34,000 -660 Level Kansas City Center
10:10AM 37.7189 -92.2228 226° Southwest 441 507 32,700 -1,560 Descending Kansas City Center
10:11AM 37.6267 -92.3483 227° Southwest 444 511 30,900 -1,740 Descending Kansas City Center
10:12AM 37.5303 -92.4494 220° Southwest 445 512 29,200 -1,680 Descending Kansas City Center
10:13AM 37.4319 -92.5497 219° Southwest 451 519 27,500 -2,040 Descending Kansas City Center
10:14AM 37.3133 -92.6678 218° Southwest 451 519 25,000 -2,280 Descending Kansas City Center
10:15AM 37.2172 -92.7689 220° Southwest 450 518 22,900 -1,860 Descending Kansas City Center
10:16AM 37.1406 -92.8806 229° Southwest 422 486 21,200 -1,500 Descending Kansas City Center
10:17AM 37.0767 -92.9939 235° Southwest 405 466 19,800 -1,500 Descending Kansas City Center
10:18AM 37.0133 -93.1081 235° Southwest 398 458 18,200 -1,500 Descending Kansas City Center
10:20AM 36.9511 -93.2197 235° Southwest 394 453 16,700 -1,560 Descending Kansas City Center
10:21AM 36.8850 -93.3219 231° Southwest 384 442 15,100 -1,560 Descending Kansas City Center
10:22AM 36.8094 -93.4169 225° Southwest 357 411 13,600 -1,320 Descending Kansas City Center
10:23AM 36.7500 -93.5153 233° Southwest 366 421 12,400 -1,140 Descending Kansas City Center
10:24AM 36.7206 -93.6344 253° West 362 417 11,300 -1,080 Descending Kansas City Center
10:25AM 36.6944 -93.7492 254° West 349 402 10,200 -1,020 Descending Kansas City Center
10:26AM 36.6603 -93.8619 249° West 295 339 9,300 -1,140 Descending Kansas City Center
10:27AM 36.6311 -93.9500 248° West 277 319 7,900 -1,380 Descending Kansas City Center
10:28AM 36.6056 -94.0364 250° West 271 312 6,500 -1,500 Descending Kansas City Center
10:29AM 36.5783 -94.1194 248° West 265 305 4,900 -1,260 Descending Kansas City Center
10:30AM 36.5506 -94.2039 248° West 264 304 4,000 -480 Descending Kansas City Center
10:31AM 36.5244 -94.2836 248° West 257 296 4,000  Level Kansas City Center
10:32AM 36.4983 -94.3628 248° West 252 290 4,000  Level Kansas City Center